createdAt,value
2023-02-03T00:00:47.901Z,100596.66
2023-02-03T00:03:14.233Z,100598.47
2023-02-03T00:05:41.990Z,100620.25
2023-02-03T00:08:09.350Z,100615.53
2023-02-03T00:10:38.746Z,100615.47
2023-02-03T00:13:06.117Z,100625.19
2023-02-03T00:15:32.758Z,100640.75
2023-02-03T00:17:59.501Z,100633.97
2023-02-03T00:20:26.377Z,100623.34
2023-02-03T00:22:53.022Z,100629.63
2023-02-03T00:25:21.312Z,100625.06
2023-02-03T00:27:47.694Z,100621.78
2023-02-03T00:30:14.087Z,100615.41
2023-02-03T00:32:40.610Z,100611.75
2023-02-03T00:35:07.402Z,100621.72
2023-02-03T00:37:36.042Z,100617.94
2023-02-03T00:40:02.427Z,100615.09
2023-02-03T00:42:28.713Z,100606.56
2023-02-03T00:44:55.045Z,100590.56
2023-02-03T00:47:21.597Z,100573.91
2023-02-03T00:49:48.011Z,100553.66
2023-02-03T00:52:14.320Z,100559.00
2023-02-03T00:54:40.671Z,100578.16
2023-02-03T00:57:07.007Z,100584.84
2023-02-03T00:59:33.367Z,100572.22
2023-02-03T01:01:59.781Z,100559.84
2023-02-03T01:04:26.180Z,100556.19
2023-02-03T01:06:57.304Z,100553.03
2023-02-03T01:09:24.383Z,100550.78
2023-02-03T01:11:51.199Z,100548.88
2023-02-03T01:14:17.871Z,100544.16
2023-02-03T01:16:44.234Z,100545.00
2023-02-03T01:19:10.656Z,100552.81
2023-02-03T01:21:38.684Z,100538.91
2023-02-03T01:24:05.147Z,100554.69
2023-02-03T01:26:31.472Z,100557.75
2023-02-03T01:29:00.413Z,100552.66
2023-02-03T01:31:30.124Z,100560.78
2023-02-03T01:33:57.386Z,100558.00
2023-02-03T01:36:25.450Z,100561.78
2023-02-03T01:38:51.894Z,100544.44
2023-02-03T01:41:22.132Z,100534.16
2023-02-03T01:43:51.770Z,100538.41
2023-02-03T01:46:27.202Z,100535.38
2023-02-03T01:48:59.621Z,100547.78
2023-02-03T01:51:26.199Z,100543.66
2023-02-03T01:53:53.777Z,100536.41
2023-02-03T01:56:21.382Z,100534.75
2023-02-03T01:58:49.546Z,100535.78
2023-02-03T02:01:18.536Z,100538.13
2023-02-03T02:03:50.223Z,100547.91
2023-02-03T02:06:16.594Z,100554.97
2023-02-03T02:08:47.758Z,100558.19
2023-02-03T02:11:14.217Z,100558.38
2023-02-03T02:13:42.717Z,100553.03
2023-02-03T02:16:34.456Z,100564.09
2023-02-03T02:19:27.242Z,100574.47
2023-02-03T02:22:10.151Z,100559.75
2023-02-03T02:25:14.508Z,100558.13
2023-02-03T02:28:02.439Z,100558.91
2023-02-03T02:30:44.977Z,100570.44
2023-02-03T02:33:49.830Z,100577.41
2023-02-03T02:36:31.227Z,100577.78
2023-02-03T02:39:00.758Z,100591.66
2023-02-03T02:41:49.252Z,100588.63
2023-02-03T02:44:26.465Z,100592.25
2023-02-03T02:46:57.141Z,100577.34
2023-02-03T02:49:40.728Z,100583.38
2023-02-03T02:52:08.516Z,100575.47
2023-02-03T02:54:40.742Z,100560.84
2023-02-03T02:57:11.731Z,100566.97
2023-02-03T02:59:38.084Z,100559.69
2023-02-03T03:02:04.423Z,100551.19
2023-02-03T03:04:34.560Z,100557.47
2023-02-03T03:07:07.274Z,100556.59
2023-02-03T03:09:41.945Z,100554.50
2023-02-03T03:12:17.129Z,100545.81
2023-02-03T03:14:47.755Z,100549.06
2023-02-03T03:17:22.292Z,100530.97
2023-02-03T03:19:52.690Z,100518.34
2023-02-03T03:22:24.583Z,100520.91
2023-02-03T03:24:56.041Z,100499.84
2023-02-03T03:27:25.139Z,100507.75
2023-02-03T03:29:57.270Z,100507.75
2023-02-03T03:32:24.549Z,100523.13
2023-02-03T03:34:51.851Z,100519.13
2023-02-03T03:37:39.151Z,100539.47
2023-02-03T03:40:29.655Z,100548.06
2023-02-03T03:43:02.063Z,100549.69
2023-02-03T03:45:35.514Z,100537.53
2023-02-03T03:48:11.793Z,100539.09
2023-02-03T03:50:43.743Z,100530.50
2023-02-03T03:53:11.661Z,100524.75
2023-02-03T03:55:41.003Z,100519.13
2023-02-03T03:58:12.826Z,100509.97
2023-02-03T04:00:41.508Z,100520.50
2023-02-03T04:03:15.608Z,100525.84
2023-02-03T04:05:42.931Z,100541.47
2023-02-03T04:08:09.471Z,100546.34
2023-02-03T04:10:38.635Z,100550.53
2023-02-03T04:13:06.812Z,100553.56
2023-02-03T04:15:34.178Z,100553.56
2023-02-03T04:18:03.451Z,100552.41
2023-02-03T04:20:31.587Z,100540.31
2023-02-03T04:22:58.408Z,100537.88
2023-02-03T04:25:25.839Z,100523.84
2023-02-03T04:27:52.220Z,100517.91
2023-02-03T04:30:18.741Z,100531.97
2023-02-03T04:32:46.363Z,100562.72
2023-02-03T04:35:13.730Z,100545.66
2023-02-03T04:37:40.781Z,100545.22
2023-02-03T04:40:08.003Z,100547.13
2023-02-03T04:42:39.739Z,100542.22
2023-02-03T04:45:08.392Z,100541.97
2023-02-03T04:47:35.312Z,100528.97
2023-02-03T04:50:02.117Z,100535.91
2023-02-03T04:52:28.607Z,100506.44
2023-02-03T04:54:54.952Z,100516.72
2023-02-03T04:57:21.287Z,100508.06
2023-02-03T04:59:47.592Z,100513.16
2023-02-03T05:02:13.869Z,100515.19
2023-02-03T05:04:40.184Z,100509.91
2023-02-03T05:07:06.467Z,100506.63
2023-02-03T05:09:32.747Z,100508.84
2023-02-03T05:11:59.173Z,100508.59
2023-02-03T05:14:25.521Z,100506.53
2023-02-03T05:16:51.960Z,100517.41
2023-02-03T05:19:18.286Z,100505.91
2023-02-03T05:21:44.615Z,100494.88
2023-02-03T05:24:10.935Z,100479.59
2023-02-03T05:26:37.317Z,100485.59
2023-02-03T05:29:03.674Z,100480.31
2023-02-03T05:31:30.233Z,100497.91
2023-02-03T05:33:56.555Z,100494.34
2023-02-03T05:36:22.920Z,100500.53
2023-02-03T05:38:49.362Z,100503.03
2023-02-03T05:41:34.285Z,100503.84
2023-02-03T05:44:00.717Z,100501.16
2023-02-03T05:46:27.025Z,100508.28
2023-02-03T05:48:53.352Z,100510.13
2023-02-03T05:51:19.676Z,100512.16
2023-02-03T05:53:46.016Z,100510.53
2023-02-03T05:56:12.300Z,100496.13
2023-02-03T05:58:38.593Z,100489.00
2023-02-03T06:01:05.037Z,100496.06
2023-02-03T06:03:31.398Z,100500.78
2023-02-03T06:05:58.814Z,100497.13
2023-02-03T06:08:28.426Z,100491.72
2023-02-03T06:11:00.699Z,100483.19
2023-02-03T06:13:27.508Z,100484.31
2023-02-03T06:15:54.065Z,100485.00
2023-02-03T06:18:20.925Z,100489.78
2023-02-03T06:20:47.485Z,100485.44
2023-02-03T06:23:14.047Z,100490.78
2023-02-03T06:25:40.478Z,100488.56
2023-02-03T06:28:06.875Z,100469.13
2023-02-03T06:30:33.203Z,100491.47
2023-02-03T06:32:59.543Z,100485.38
2023-02-03T06:35:25.872Z,100485.84
2023-02-03T06:37:52.171Z,100488.94
2023-02-03T06:40:18.712Z,100491.72
2023-02-03T06:42:48.508Z,100491.88
2023-02-03T06:45:15.276Z,100492.66
2023-02-03T06:47:42.987Z,100502.91
2023-02-03T06:50:11.420Z,100510.13
2023-02-03T06:52:38.032Z,100510.50
2023-02-03T06:55:05.514Z,100507.25
2023-02-03T06:57:32.539Z,100509.13
2023-02-03T06:59:59.084Z,100514.22
2023-02-03T07:02:25.509Z,100513.28
2023-02-03T07:04:51.868Z,100500.22
2023-02-03T07:07:18.355Z,100498.94
2023-02-03T07:09:44.657Z,100510.97
2023-02-03T07:12:11.081Z,100497.28
2023-02-03T07:14:39.194Z,100505.72
2023-02-03T07:17:06.515Z,100506.06
2023-02-03T07:19:32.908Z,100509.56
2023-02-03T07:21:59.299Z,100502.69
2023-02-03T07:24:25.715Z,100496.72
2023-02-03T07:26:53.162Z,100491.22
2023-02-03T07:29:19.465Z,100498.28
2023-02-03T07:31:45.878Z,100503.69
2023-02-03T07:34:12.318Z,100502.78
2023-02-03T07:36:38.680Z,100504.22
2023-02-03T07:39:05.217Z,100512.94
2023-02-03T07:41:31.546Z,100520.78
2023-02-03T07:43:57.983Z,100524.25
2023-02-03T07:46:24.347Z,100533.31
2023-02-03T07:48:51.049Z,100529.88
2023-02-03T07:51:17.386Z,100540.28
2023-02-03T07:53:43.769Z,100532.09
2023-02-03T07:56:11.935Z,100543.28
2023-02-03T07:58:38.525Z,100526.97
2023-02-03T08:01:16.534Z,100525.81
2023-02-03T08:03:42.931Z,100528.59
2023-02-03T08:06:10.000Z,100514.19
2023-02-03T08:08:36.494Z,100517.41
2023-02-03T08:11:03.362Z,100519.44
2023-02-03T08:13:29.676Z,100526.31
2023-02-03T08:15:56.054Z,100510.63
2023-02-03T08:18:22.511Z,100508.00
2023-02-03T08:20:49.202Z,100506.09
2023-02-03T08:23:16.117Z,100508.00
2023-02-03T08:25:42.523Z,100515.69
2023-02-03T08:28:09.025Z,100516.47
2023-02-03T08:30:35.741Z,100510.44
2023-02-03T08:33:02.100Z,100521.06
2023-02-03T08:35:28.804Z,100508.16
2023-02-03T08:37:55.510Z,100504.34
2023-02-03T08:40:22.010Z,100519.25
2023-02-03T08:42:48.382Z,100514.94
2023-02-03T08:45:14.794Z,100506.19
2023-02-03T08:47:41.181Z,100499.75
2023-02-03T08:50:08.422Z,100483.03
2023-02-03T08:52:34.865Z,100491.69
2023-02-03T08:55:01.157Z,100495.75
2023-02-03T08:57:27.565Z,100493.22
2023-02-03T08:59:54.831Z,100492.47
2023-02-03T09:02:21.146Z,100480.91
2023-02-03T09:04:48.960Z,100479.63
2023-02-03T09:07:16.573Z,100470.03
2023-02-03T09:09:42.966Z,100495.50
2023-02-03T09:12:11.488Z,100494.59
2023-02-03T09:14:37.821Z,100506.97
2023-02-03T09:17:05.706Z,100504.34
2023-02-03T09:19:35.339Z,100490.84
2023-02-03T09:22:02.550Z,100483.78
2023-02-03T09:24:29.067Z,100500.19
2023-02-03T09:26:55.855Z,100500.88
2023-02-03T09:29:23.112Z,100496.78
2023-02-03T09:31:52.608Z,100489.91
2023-02-03T09:34:20.527Z,100492.28
2023-02-03T09:36:47.662Z,100483.78
2023-02-03T09:39:14.631Z,100499.59
2023-02-03T09:42:08.079Z,100494.59
2023-02-03T09:44:40.918Z,100485.41
2023-02-03T09:47:15.039Z,100486.50
2023-02-03T09:50:04.831Z,100472.75
2023-02-03T09:52:34.256Z,100478.78
2023-02-03T09:55:25.938Z,100485.66
2023-02-03T09:58:05.506Z,100475.94
2023-02-03T10:00:52.914Z,100477.38
2023-02-03T10:03:28.333Z,100473.81
2023-02-03T10:06:25.874Z,100472.13
2023-02-03T10:09:03.431Z,100470.91
2023-02-03T10:11:50.050Z,100469.16
2023-02-03T10:14:32.805Z,100466.59
2023-02-03T10:17:11.841Z,100480.44
2023-02-03T10:19:53.386Z,100483.84
2023-02-03T10:22:25.833Z,100473.47
2023-02-03T10:24:58.973Z,100475.63
2023-02-03T10:27:26.964Z,100481.56
2023-02-03T10:30:00.367Z,100492.69
2023-02-03T10:32:27.461Z,100497.97
2023-02-03T10:34:54.921Z,100515.53
2023-02-03T10:37:36.865Z,100501.88
2023-02-03T10:40:04.120Z,100512.91
2023-02-03T10:42:52.245Z,100514.78
2023-02-03T10:45:20.524Z,100508.84
2023-02-03T10:47:51.733Z,100516.06
2023-02-03T10:50:19.445Z,100519.91
2023-02-03T10:52:45.950Z,100522.28
2023-02-03T10:55:21.662Z,100525.69
2023-02-03T10:57:48.629Z,100534.69
2023-02-03T11:00:18.789Z,100527.72
2023-02-03T11:02:46.004Z,100510.41
2023-02-03T11:05:24.902Z,100507.00
2023-02-03T11:07:52.211Z,100487.41
2023-02-03T11:10:37.667Z,100496.19
2023-02-03T11:13:17.045Z,100488.34
2023-02-03T11:16:04.660Z,100488.34
2023-02-03T11:18:41.826Z,100469.75
2023-02-03T11:21:11.809Z,100476.38
2023-02-03T11:23:46.815Z,100472.31
2023-02-03T11:26:17.899Z,100463.72
2023-02-03T11:28:47.613Z,100459.75
2023-02-03T11:31:39.041Z,100462.97
2023-02-03T11:34:15.530Z,100464.31
2023-02-03T11:36:41.889Z,100476.19
2023-02-03T11:39:29.585Z,100483.91
2023-02-03T11:41:56.486Z,100479.78
2023-02-03T11:44:26.182Z,100480.63
2023-02-03T11:46:57.379Z,100476.44
2023-02-03T11:49:50.894Z,100479.78
2023-02-03T11:52:19.866Z,100482.41
2023-02-03T11:55:26.326Z,100471.63
2023-02-03T11:58:11.109Z,100464.91
2023-02-03T12:01:02.235Z,100472.41
2023-02-03T12:03:49.700Z,100465.84
2023-02-03T12:06:40.556Z,100461.09
2023-02-03T12:09:22.805Z,100442.09
2023-02-03T12:12:32.429Z,100432.63
2023-02-03T12:15:17.570Z,100434.22
2023-02-03T12:17:58.184Z,100431.84
2023-02-03T12:20:34.811Z,100426.09
2023-02-03T12:23:42.370Z,100438.28
2023-02-03T12:26:08.634Z,100433.63
2023-02-03T12:28:48.516Z,100418.41
2023-02-03T12:31:24.367Z,100429.47
2023-02-03T12:33:56.363Z,100437.13
2023-02-03T12:37:06.466Z,100435.16
2023-02-03T12:39:45.879Z,100443.22
2023-02-03T12:42:18.793Z,100447.16
2023-02-03T12:45:00.865Z,100424.38
2023-02-03T12:47:44.609Z,100437.63
2023-02-03T12:50:19.416Z,100428.78
2023-02-03T12:52:55.383Z,100426.94
2023-02-03T12:55:37.242Z,100427.09
2023-02-03T12:58:07.308Z,100435.59
2023-02-03T13:00:54.411Z,100430.16
2023-02-03T13:03:42.661Z,100427.25
2023-02-03T13:06:22.477Z,100412.97
2023-02-03T13:09:25.622Z,100420.44
2023-02-03T13:12:19.339Z,100419.13
2023-02-03T13:14:54.564Z,100421.22
2023-02-03T13:17:37.864Z,100422.91
2023-02-03T13:20:13.790Z,100423.84
2023-02-03T13:22:40.111Z,100422.97
2023-02-03T13:25:20.846Z,100423.25
2023-02-03T13:28:19.698Z,100440.31
2023-02-03T13:31:10.895Z,100435.91
2023-02-03T13:34:16.350Z,100446.47
2023-02-03T13:37:01.477Z,100426.75
2023-02-03T13:39:41.708Z,100442.19
2023-02-03T13:42:22.383Z,100428.09
2023-02-03T13:44:53.458Z,100422.31
2023-02-03T13:47:37.793Z,100432.53
2023-02-03T13:50:21.186Z,100426.38
2023-02-03T13:53:01.077Z,100427.41
2023-02-03T13:55:38.544Z,100418.84
2023-02-03T13:58:18.346Z,100412.28
2023-02-03T14:00:44.667Z,100409.81
2023-02-03T14:03:38.546Z,100415.00
2023-02-03T14:06:10.066Z,100421.22
2023-02-03T14:08:36.381Z,100428.72
2023-02-03T14:11:37.749Z,100432.53
2023-02-03T14:14:04.007Z,100450.88
2023-02-03T14:16:35.032Z,100454.88
2023-02-03T14:19:01.495Z,100450.69
2023-02-03T14:21:36.780Z,100467.28
2023-02-03T14:24:07.645Z,100480.34
2023-02-03T14:26:38.501Z,100470.56
2023-02-03T14:29:06.357Z,100454.75
2023-02-03T14:31:53.216Z,100453.56
2023-02-03T14:34:29.593Z,100468.34
2023-02-03T14:36:56.245Z,100466.63
2023-02-03T14:39:35.580Z,100458.72
2023-02-03T14:42:01.843Z,100441.81
2023-02-03T14:44:50.210Z,100409.41
2023-02-03T14:47:34.692Z,100429.03
2023-02-03T14:50:26.026Z,100422.81
2023-02-03T14:52:58.369Z,100448.59
2023-02-03T14:55:54.887Z,100462.34
2023-02-03T14:58:29.942Z,100447.50
2023-02-03T15:00:56.484Z,100458.78
2023-02-03T15:03:25.403Z,100459.91
2023-02-03T15:05:54.441Z,100461.63
2023-02-03T15:08:42.186Z,100464.06
2023-02-03T15:11:43.522Z,100463.22
2023-02-03T15:14:27.757Z,100465.19
2023-02-03T15:16:57.577Z,100472.72
2023-02-03T15:19:27.368Z,100468.94
2023-02-03T15:21:53.797Z,100470.47
2023-02-03T15:24:23.724Z,100455.03
2023-02-03T15:26:52.940Z,100467.44
2023-02-03T15:29:27.362Z,100484.41
2023-02-03T15:32:01.516Z,100481.78
2023-02-03T15:34:39.614Z,100488.66
2023-02-03T15:37:18.740Z,100478.28
2023-02-03T15:39:47.762Z,100491.94
2023-02-03T15:42:28.214Z,100500.78
2023-02-03T15:45:02.145Z,100506.59
2023-02-03T15:47:41.159Z,100507.94
2023-02-03T15:50:23.442Z,100506.06
2023-02-03T15:52:52.533Z,100520.94
2023-02-03T15:55:32.105Z,100513.56
2023-02-03T15:57:58.916Z,100519.00
2023-02-03T16:00:40.688Z,100511.72
2023-02-03T16:03:19.606Z,100524.88
2023-02-03T16:05:49.411Z,100534.66
2023-02-03T16:08:36.593Z,100538.13
2023-02-03T16:11:29.309Z,100541.13
2023-02-03T16:13:57.258Z,100536.88
2023-02-03T16:16:28.635Z,100522.75
2023-02-03T16:18:57.757Z,100531.88
2023-02-03T16:21:27.880Z,100517.84
2023-02-03T16:23:54.233Z,100519.72
2023-02-03T16:26:23.098Z,100530.00
2023-02-03T16:29:23.051Z,100523.88
2023-02-03T16:32:08.361Z,100525.66
2023-02-03T16:34:53.484Z,100530.34
2023-02-03T16:37:41.477Z,100530.94
2023-02-03T16:40:27.868Z,100540.63
2023-02-03T16:43:12.817Z,100534.34
2023-02-03T16:45:58.183Z,100539.69
2023-02-03T16:48:43.229Z,100527.88
2023-02-03T16:51:15.843Z,100538.78
2023-02-03T16:53:45.056Z,100536.88
2023-02-03T16:56:12.739Z,100527.09
2023-02-03T16:58:39.077Z,100529.91
2023-02-03T17:01:07.532Z,100529.91
2023-02-03T17:03:35.857Z,100539.94
2023-02-03T17:06:10.673Z,100548.00
2023-02-03T17:08:38.648Z,100552.44
2023-02-03T17:11:08.560Z,100557.72
2023-02-03T17:13:36.611Z,100562.22
2023-02-03T17:16:12.966Z,100573.59
2023-02-03T17:18:40.066Z,100587.56
2023-02-03T17:21:08.393Z,100575.72
2023-02-03T17:23:34.955Z,100576.34
2023-02-03T17:26:01.300Z,100583.88
2023-02-03T17:28:27.771Z,100587.38
2023-02-03T17:31:05.272Z,100615.22
2023-02-03T17:33:32.889Z,100621.06
2023-02-03T17:36:12.560Z,100621.72
2023-02-03T17:55:07.932Z,100642.88
2023-02-03T17:57:37.010Z,100645.50
2023-02-03T18:00:05.396Z,100666.59
2023-02-03T18:02:38.822Z,100671.34
2023-02-03T18:05:05.506Z,100667.50
2023-02-03T18:07:31.802Z,100672.06
2023-02-03T18:09:58.222Z,100670.88
2023-02-03T18:12:24.590Z,100670.34
2023-02-03T18:14:51.025Z,100669.94
2023-02-03T18:17:17.369Z,100670.06
2023-02-03T18:19:46.802Z,100681.53
2023-02-03T18:22:15.490Z,100679.81
2023-02-03T18:24:44.735Z,100672.84
2023-02-03T18:27:16.483Z,100681.59
2023-02-03T18:29:44.647Z,100670.38
2023-02-03T18:32:11.717Z,100678.91
2023-02-03T18:34:38.134Z,100681.69
2023-02-03T18:37:04.441Z,100687.88
2023-02-03T18:39:30.765Z,100689.84
2023-02-03T18:41:57.075Z,100690.81
2023-02-03T18:44:26.157Z,100690.44
2023-02-03T18:46:53.900Z,100687.72
2023-02-03T18:49:20.384Z,100686.81
2023-02-03T18:51:46.703Z,100690.53
2023-02-03T18:54:13.010Z,100691.78
2023-02-03T18:56:39.330Z,100691.03
2023-02-03T18:59:08.570Z,100681.84
2023-02-03T19:01:35.167Z,100704.53
2023-02-03T19:04:03.150Z,100699.03
2023-02-03T19:06:32.072Z,100718.03
2023-02-03T19:08:59.398Z,100717.63
2023-02-03T19:11:26.020Z,100721.28
2023-02-03T19:13:52.534Z,100706.94
2023-02-03T19:16:19.136Z,100714.78
2023-02-03T19:18:46.251Z,100717.00
2023-02-03T19:21:13.569Z,100723.22
2023-02-03T19:23:41.563Z,100724.06
2023-02-03T19:26:09.627Z,100727.53
2023-02-03T19:28:36.018Z,100730.28
2023-02-03T19:31:08.768Z,100737.09
2023-02-03T19:33:36.503Z,100724.59
2023-02-03T19:36:04.531Z,100725.06
2023-02-03T19:38:30.982Z,100712.91
2023-02-03T19:40:57.406Z,100711.34
2023-02-03T19:43:24.562Z,100719.78
2023-02-03T19:45:51.509Z,100711.91
2023-02-03T19:48:18.030Z,100717.69
2023-02-03T19:50:46.811Z,100715.47
2023-02-03T19:53:14.398Z,100735.53
2023-02-03T19:55:42.635Z,100740.13
2023-02-03T19:58:09.275Z,100744.03
2023-02-03T20:00:35.803Z,100745.97
2023-02-03T20:03:02.235Z,100747.78
2023-02-03T20:05:29.661Z,100753.50
2023-02-03T20:07:56.109Z,100748.38
2023-02-03T20:10:22.509Z,100753.28
2023-02-03T20:12:48.789Z,100763.50
2023-02-03T20:15:15.198Z,100759.00
2023-02-03T20:17:42.798Z,100768.06
2023-02-03T20:20:11.840Z,100760.72
2023-02-03T20:22:38.177Z,100756.06
2023-02-03T20:25:06.035Z,100750.56
2023-02-03T20:27:32.516Z,100763.50
2023-02-03T20:29:58.830Z,100762.47
2023-02-03T20:32:25.208Z,100774.72
2023-02-03T20:34:52.149Z,100775.44
2023-02-03T20:37:18.447Z,100773.53
2023-02-03T20:39:44.741Z,100779.16
2023-02-03T20:42:15.673Z,100793.34
2023-02-03T20:44:42.778Z,100791.25
2023-02-03T20:47:13.182Z,100782.81
2023-02-03T20:49:39.640Z,100795.59
2023-02-03T20:52:11.113Z,100795.09
2023-02-03T20:54:37.490Z,100795.19
2023-02-03T20:57:11.388Z,100812.31
2023-02-03T20:59:38.362Z,100801.16
2023-02-03T21:02:30.580Z,100796.13
2023-02-03T21:05:17.600Z,100805.34
2023-02-03T21:07:43.900Z,100811.38
2023-02-03T21:10:19.944Z,100823.78
2023-02-03T21:12:47.018Z,100819.28
2023-02-03T21:15:24.932Z,100808.28
2023-02-03T21:17:51.309Z,100812.63
2023-02-03T21:20:25.688Z,100809.34
2023-02-03T21:22:52.492Z,100811.44
2023-02-03T21:25:28.581Z,100807.78
2023-02-03T21:27:57.982Z,100803.47
2023-02-03T21:30:32.540Z,100816.66
2023-02-03T21:32:59.326Z,100804.03
2023-02-03T21:35:31.750Z,100807.78
2023-02-03T21:38:02.384Z,100807.06
2023-02-03T21:40:32.197Z,100806.72
2023-02-03T21:42:59.766Z,100823.06
2023-02-03T21:45:34.122Z,100821.31
2023-02-03T21:48:01.698Z,100823.53
2023-02-03T21:50:33.592Z,100806.81
2023-02-03T21:53:24.559Z,100827.50
2023-02-03T21:55:50.967Z,100823.13
2023-02-03T21:58:30.505Z,100824.16
2023-02-03T22:01:02.531Z,100834.00
2023-02-03T22:03:35.876Z,100836.47
2023-02-03T22:06:08.191Z,100833.28
2023-02-03T22:08:45.165Z,100840.66
2023-02-03T22:11:12.765Z,100827.78
2023-02-03T22:13:39.091Z,100846.47
2023-02-03T22:16:05.724Z,100832.66
2023-02-03T22:18:32.081Z,100830.28
2023-02-03T22:20:58.537Z,100831.75
2023-02-03T22:23:24.960Z,100840.16
2023-02-03T22:25:51.468Z,100860.63
2023-02-03T22:28:17.913Z,100850.50
2023-02-03T22:30:44.379Z,100863.13
2023-02-03T22:33:10.741Z,100870.69
2023-02-03T22:35:37.119Z,100867.59
2023-02-03T22:38:03.620Z,100867.34
2023-02-03T22:40:30.254Z,100885.66
2023-02-03T22:42:56.731Z,100885.72
2023-02-03T22:45:23.250Z,100891.31
2023-02-03T22:47:49.604Z,100893.19
2023-02-03T22:50:17.482Z,100897.63
2023-02-03T22:52:46.847Z,100895.97
2023-02-03T22:55:13.208Z,100893.81
2023-02-03T22:57:40.619Z,100895.56
2023-02-03T23:00:11.873Z,100896.84
2023-02-03T23:02:39.054Z,100904.88
2023-02-03T23:05:09.226Z,100900.03
2023-02-03T23:07:36.959Z,100897.41
2023-02-03T23:10:04.866Z,100901.69
2023-02-03T23:12:31.178Z,100907.13
2023-02-03T23:14:57.611Z,100899.56
2023-02-03T23:17:23.975Z,100911.13
2023-02-03T23:19:50.374Z,100913.59
2023-02-03T23:22:16.997Z,100907.94
2023-02-03T23:24:43.360Z,100915.47
2023-02-03T23:27:10.173Z,100915.25
2023-02-03T23:29:38.022Z,100918.28
2023-02-03T23:32:05.625Z,100918.59
2023-02-03T23:34:51.098Z,100934.81
2023-02-03T23:37:17.514Z,100921.50
2023-02-03T23:39:43.971Z,100932.19
2023-02-03T23:42:10.315Z,100954.78
2023-02-03T23:44:36.706Z,100950.44
2023-02-03T23:47:03.335Z,100949.88
2023-02-03T23:49:31.216Z,100947.25
2023-02-03T23:51:57.619Z,100951.41
2023-02-03T23:54:24.287Z,100955.22
2023-02-03T23:56:50.702Z,100960.38
2023-02-03T23:59:17.008Z,100962.44
